Time;durP1;ratioP1;P1;durP2;ratioP2;P2;SDS_P1;SDS_P2;PMS_P1;PMS_P2;Temp;Humidity;BMP_temperature;BMP_pressure;BME280_temperature;BME280_humidity;BME280_pressure;Samples;Min_cycle;Max_cycle;Signal;HPM_P1;HPM_P2
2022/08/28 00:01:24;;;;;;;;;27.75;26.50;;;;;33.17;32.55;98884.59;5124747;27;8837;-82
2022/08/28 00:03:53;;;;;;;;;27.00;22.75;;;;;33.05;32.58;98889.41;5073541;28;8905;-81
2022/08/28 00:06:22;;;;;;;;;21.75;21.75;;;;;32.90;32.19;98889.16;5109196;27;8849;-83
2022/08/28 00:08:51;;;;;;;;;24.50;22.75;;;;;32.84;32.70;98889.81;5108009;28;8965;-82
2022/08/28 00:11:22;;;;;;;;;20.00;20.00;;;;;32.74;32.07;98886.34;5089581;28;8853;-81
2022/08/28 00:13:51;;;;;;;;;18.75;18.75;;;;;32.58;32.39;98893.34;5119812;27;8855;-82
2022/08/28 00:16:20;;;;;;;;;20.00;18.00;;;;;32.70;32.35;98887.69;5093567;27;8855;-83
2022/08/28 00:18:50;;;;;;;;;20.75;20.25;;;;;32.90;32.14;98881.06;5083264;28;8969;-83
2022/08/28 00:21:19;;;;;;;;;22.50;21.00;;;;;32.91;31.94;98880.06;5091564;28;8946;-85
2022/08/28 00:23:47;;;;;;;;;19.80;18.80;;;;;33.02;31.93;98881.63;5069679;28;9721;-82
2022/08/28 00:27:51;;;;;;;;;31.50;28.25;;;;;32.90;32.73;98872.13;5085938;28;9858;-82
2022/08/28 00:29:06;;;;;;;;;18.50;17.75;;;;;33.00;31.63;98873.66;5036045;28;8857;-85
2022/08/28 00:31:38;;;;;;;;;21.50;20.50;;;;;32.96;31.44;98872.31;5069111;28;8919;-80
2022/08/28 00:34:08;;;;;;;;;19.25;18.75;;;;;32.89;31.50;98876.66;5091139;28;8916;-81
2022/08/28 00:36:37;;;;;;;;;19.00;18.00;;;;;32.81;31.35;98873.91;5080944;28;8862;-78
2022/08/28 00:39:07;;;;;;;;;20.25;19.50;;;;;32.85;31.54;98869.88;5096693;28;9585;-79
2022/08/28 00:41:38;;;;;;;;;23.50;20.75;;;;;32.81;31.30;98865.81;5090640;28;8957;-83
2022/08/28 00:44:13;;;;;;;;;17.00;16.25;;;;;32.84;31.37;98865.50;5094863;28;8865;-81
2022/08/28 00:46:44;;;;;;;;;18.75;18.00;;;;;32.80;31.39;98869.53;5075410;28;8850;-81
2022/08/28 00:49:15;;;;;;;;;22.75;21.00;;;;;32.76;30.94;98873.53;5091897;28;8972;-81
2022/08/28 00:54:32;;;;;;;;;23.75;22.25;;;;;32.75;31.03;98863.75;5110825;28;8853;-81
2022/08/28 00:57:04;;;;;;;;;23.75;20.50;;;;;32.76;30.89;98869.00;5092616;28;8884;-85
2022/08/28 00:59:35;;;;;;;;;22.25;20.75;;;;;32.70;30.95;98858.81;5093499;28;8864;-83
2022/08/28 01:02:06;;;;;;;;;22.25;22.25;;;;;32.79;30.64;98862.44;5108123;28;8817;-82
2022/08/28 01:04:36;;;;;;;;;22.75;22.25;;;;;32.88;30.46;98866.03;5106481;28;8863;-82
2022/08/28 01:07:08;;;;;;;;;23.00;22.25;;;;;32.86;30.48;98865.34;5108516;28;8805;-81
2022/08/28 01:09:41;;;;;;;;;24.25;22.75;;;;;32.84;30.63;98862.81;5111581;28;8871;-85
2022/08/28 01:12:15;;;;;;;;;23.50;23.50;;;;;32.77;30.49;98857.19;5109844;28;8837;-81
2022/08/28 01:14:46;;;;;;;;;25.50;24.50;;;;;32.81;30.91;98863.94;5091009;28;8849;-81
2022/08/28 01:17:17;;;;;;;;;23.25;23.25;;;;;32.83;30.53;98861.94;5075569;28;9000;-84
2022/08/28 01:19:54;;;;;;;;;24.75;24.50;;;;;32.69;30.68;98857.13;5086805;28;8953;-82
2022/08/28 01:22:30;;;;;;;;;22.00;20.00;;;;;32.81;30.96;98863.94;5070724;28;8855;-82
2022/08/28 01:25:03;;;;;;;;;27.25;26.25;;;;;32.79;30.94;98860.56;5088765;28;8899;-80
2022/08/28 01:27:32;;;;;;;;;22.75;22.75;;;;;32.75;30.63;98867.28;5075495;28;8988;-83
2022/08/28 01:30:01;;;;;;;;;25.25;24.25;;;;;32.68;30.71;98862.69;5074482;28;8886;-81
2022/08/28 01:32:34;;;;;;;;;25.00;25.00;;;;;32.74;30.35;98859.34;5092707;28;8954;-79
2022/08/28 01:35:06;;;;;;;;;28.25;26.50;;;;;32.75;30.38;98861.06;5091332;28;8929;-81
2022/08/28 01:37:34;;;;;;;;;26.50;26.50;;;;;32.80;30.11;98856.88;5092100;28;9733;-81
2022/08/28 01:40:05;;;;;;;;;24.75;23.75;;;;;32.77;30.16;98861.75;5094708;28;8926;-83
2022/08/28 01:42:37;;;;;;;;;28.25;27.25;;;;;32.76;30.26;98860.03;5094255;28;8844;-82
2022/08/28 01:45:10;;;;;;;;;24.25;21.50;;;;;32.81;30.71;98865.81;5111607;27;8879;-80
2022/08/28 01:47:38;;;;;;;;;30.75;30.00;;;;;32.97;32.87;98865.91;5129914;27;8854;-79
2022/08/28 01:50:09;;;;;;;;;32.25;31.25;;;;;32.88;33.54;98874.13;5081902;27;8874;-82
2022/08/28 01:52:40;;;;;;;;;33.25;31.75;;;;;32.25;34.96;98874.19;5132832;27;8825;-82
2022/08/28 01:55:11;;;;;;;;;24.75;24.25;;;;;31.58;35.52;98873.66;5087929;28;8831;-82
2022/08/28 01:58:00;;;;;;;;;27.50;25.00;;;;;30.64;37.42;98881.81;5068426;28;8971;-82
2022/08/28 02:00:29;;;;;;;;;28.00;27.25;;;;;29.67;39.24;98883.50;5067860;28;8926;-80
2022/08/28 02:02:59;;;;;;;;;26.25;24.25;;;;;29.26;40.65;98884.53;5068607;28;8868;-85
2022/08/28 02:05:31;;;;;;;;;28.00;26.00;;;;;29.45;40.23;98881.03;5068594;28;8853;-83
2022/08/28 02:08:02;;;;;;;;;25.25;25.25;;;;;30.02;39.04;98886.66;5051439;28;8849;-83
2022/08/28 02:10:34;;;;;;;;;25.75;25.00;;;;;30.41;38.52;98881.31;5034096;28;9619;-82
2022/08/28 02:13:05;;;;;;;;;27.25;25.50;;;;;30.65;37.89;98884.38;5051456;28;8845;-83
2022/08/28 02:15:36;;;;;;;;;30.00;29.75;;;;;30.81;38.17;98877.53;5049106;28;8873;-82
2022/08/28 02:18:06;;;;;;;;;31.50;28.50;;;;;30.97;37.80;98875.09;5031232;28;8861;-81
2022/08/28 02:20:35;;;;;;;;;28.25;27.25;;;;;31.12;37.75;98877.31;5031734;28;8850;-83
2022/08/28 02:23:05;;;;;;;;;30.25;29.25;;;;;30.98;37.79;98876.78;5031893;28;8850;-82
2022/08/28 02:25:36;;;;;;;;;29.25;27.25;;;;;31.06;38.08;98879.59;5038480;28;8842;-81
2022/08/28 02:28:04;;;;;;;;;31.75;29.00;;;;;31.15;38.03;98882.38;5088250;27;8990;-81
2022/08/28 02:30:33;;;;;;;;;31.00;30.00;;;;;31.10;38.14;98882.84;5130061;27;8882;-80
2022/08/28 02:33:02;;;;;;;;;30.50;29.50;;;;;31.18;37.37;98891.03;5130726;27;8846;-83
2022/08/28 02:35:31;;;;;;;;;26.50;25.75;;;;;31.03;37.76;98882.59;5092736;28;8873;-81
2022/08/28 02:38:00;;;;;;;;;26.25;25.25;;;;;31.00;37.66;98885.59;5124553;28;8837;-81
2022/08/28 02:40:30;;;;;;;;;27.50;26.50;;;;;31.05;37.61;98883.28;5100713;28;8868;-80
2022/08/28 02:43:00;;;;;;;;;34.25;30.00;;;;;31.05;38.13;98880.59;5102294;27;8984;-81
2022/08/28 02:45:29;;;;;;;;;31.25;29.50;;;;;30.97;38.27;98885.03;5136264;27;8846;-81
2022/08/28 02:47:57;;;;;;;;;31.00;29.75;;;;;30.95;38.91;98901.34;5067755;27;8854;-81
2022/08/28 02:50:26;;;;;;;;;32.75;30.25;;;;;30.95;38.59;98884.34;5113239;27;9442;-81
2022/08/28 02:52:54;;;;;;;;;33.25;31.25;;;;;30.92;38.99;98885.47;5130721;27;8934;-81
2022/08/28 02:55:24;;;;;;;;;33.00;30.25;;;;;30.86;39.07;98894.09;5131007;27;10202;-81
2022/08/28 02:57:53;;;;;;;;;24.25;23.75;;;;;30.82;39.65;98898.94;5108812;28;8859;-82
2022/08/28 03:00:26;;;;;;;;;31.50;30.25;;;;;30.85;39.60;98895.94;5120247;27;8968;-80
2022/08/28 03:02:55;;;;;;;;;36.50;30.50;;;;;30.70;39.90;98900.09;5112340;27;8858;-82
2022/08/28 03:05:25;;;;;;;;;36.25;33.25;;;;;30.68;39.96;98900.25;5094049;27;8872;-82
2022/08/28 03:07:55;;;;;;;;;33.25;32.00;;;;;30.65;40.16;98897.84;5111112;27;8855;-81
2022/08/28 03:10:23;;;;;;;;;32.50;30.25;;;;;30.59;39.82;98895.72;5095229;27;8823;-80
2022/08/28 03:12:52;;;;;;;;;36.75;32.75;;;;;30.56;40.13;98903.25;5096081;27;9712;-81
2022/08/28 03:15:21;;;;;;;;;36.75;32.50;;;;;30.47;39.84;98897.75;5094484;27;8842;-81
2022/08/28 03:17:51;;;;;;;;;36.50;33.00;;;;;30.45;40.18;98886.25;5056458;27;8842;-81
2022/08/28 03:20:20;;;;;;;;;32.75;31.25;;;;;30.41;40.07;98895.59;5114961;27;8956;-81
2022/08/28 03:25:35;;;;;;;;;33.00;31.00;;;;;30.37;40.51;98898.72;5077579;27;8847;-83
2022/08/28 03:28:04;;;;;;;;;26.00;22.25;;;;;30.30;40.27;98898.41;5095425;27;8857;-80
2022/08/28 03:30:32;;;;;;;;;35.50;31.00;;;;;30.22;40.60;98898.28;5128039;27;8839;-81
2022/08/28 03:33:02;;;;;;;;;37.75;32.50;;;;;30.16;40.41;98904.25;5108689;27;8815;-81
2022/08/28 03:35:31;;;;;;;;;34.75;31.25;;;;;30.17;40.25;98903.22;5108094;28;8876;-82
2022/08/28 03:38:00;;;;;;;;;33.75;31.25;;;;;30.05;40.87;98900.69;5106477;28;8845;-81
2022/08/28 03:40:31;;;;;;;;;35.75;32.25;;;;;30.07;40.26;98901.38;5107531;27;8819;-85
2022/08/28 03:42:59;;;;;;;;;34.25;31.50;;;;;30.11;40.65;98908.22;5110477;27;8948;-81
2022/08/28 03:45:28;;;;;;;;;34.25;31.25;;;;;29.94;40.60;98898.13;5110541;27;8831;-82
2022/08/28 03:47:57;;;;;;;;;31.75;29.50;;;;;30.05;40.10;98900.69;5127537;27;8839;-85
2022/08/28 03:50:27;;;;;;;;;33.25;30.75;;;;;30.05;40.36;98899.84;5130437;27;8819;-82
2022/08/28 03:52:58;;;;;;;;;30.25;28.50;;;;;30.04;40.14;98912.44;5077054;27;8839;-81
2022/08/28 03:55:27;;;;;;;;;33.00;31.50;;;;;30.01;39.94;98922.63;5076537;27;9645;-83
2022/08/28 03:57:56;;;;;;;;;32.25;28.75;;;;;30.03;39.96;98926.88;5123492;27;9567;-82
2022/08/28 04:00:25;;;;;;;;;32.75;31.25;;;;;30.02;40.45;98930.56;5106982;28;8854;-85
2022/08/28 04:02:54;;;;;;;;;32.75;31.00;;;;;29.97;40.30;98934.66;5089791;28;8861;-80
2022/08/28 04:05:23;;;;;;;;;32.25;30.00;;;;;29.91;40.31;98934.22;5089298;28;9671;-81
2022/08/28 04:07:53;;;;;;;;;35.25;31.50;;;;;29.78;41.17;98935.47;5105032;27;8840;-84
2022/08/28 04:10:22;;;;;;;;;34.00;32.50;;;;;29.85;40.84;98944.66;5123275;27;8886;-82
2022/08/28 04:12:50;;;;;;;;;35.25;32.25;;;;;29.85;40.90;98945.53;5108450;28;8983;-80
2022/08/28 04:15:20;;;;;;;;;35.25;32.25;;;;;29.91;40.65;98950.34;5106771;28;8852;-82
2022/08/28 04:17:48;;;;;;;;;39.25;32.50;;;;;29.98;40.43;98955.16;5107447;28;8913;-81
2022/08/28 04:20:19;;;;;;;;;39.50;34.75;;;;;29.97;40.63;98959.69;5092149;28;8853;-83
2022/08/28 04:22:48;;;;;;;;;38.50;35.25;;;;;30.00;40.75;98964.81;5108529;28;8841;-81
2022/08/28 04:25:24;;;;;;;;;37.00;34.00;;;;;30.12;40.69;98962.84;5110473;28;8852;-78
2022/08/28 04:27:53;;;;;;;;;32.75;30.25;;;;;30.04;40.58;98965.34;5094131;28;8860;-81
2022/08/28 04:30:22;;;;;;;;;44.00;34.00;;;;;30.06;41.09;98960.72;5097830;27;8858;-78
2022/08/28 04:32:50;;;;;;;;;83.50;79.75;;;;;30.03;40.82;98960.97;5130091;27;8830;-81
2022/08/28 04:35:19;;;;;;;;;43.25;37.00;;;;;30.09;41.19;98966.63;5110724;27;11336;-79
2022/08/28 04:37:48;;;;;;;;;38.50;34.25;;;;;30.13;41.13;98965.41;5075954;27;8868;-85
2022/08/28 04:40:18;;;;;;;;;38.75;34.50;;;;;30.17;40.98;98967.78;5121561;27;8866;-80
2022/08/28 04:42:48;;;;;;;;;40.25;35.00;;;;;30.23;41.32;98970.78;5119950;28;8849;-79
2022/08/28 04:45:16;;;;;;;;;43.00;35.75;;;;;30.31;41.32;98970.91;5107502;27;8885;-81
2022/08/28 04:47:45;;;;;;;;;44.75;37.25;;;;;30.29;41.44;98980.13;5106293;27;8835;-80
2022/08/28 04:50:14;;;;;;;;;43.25;36.25;;;;;29.88;42.36;98982.88;5109227;27;8871;-79
2022/08/28 04:52:43;;;;;;;;;40.00;35.50;;;;;29.93;42.11;98993.22;5126086;27;8873;-80
2022/08/28 04:55:13;;;;;;;;;43.00;37.75;;;;;30.09;41.99;98990.00;5115367;27;8842;-86
2022/08/28 04:57:45;;;;;;;;;41.50;35.00;;;;;30.11;42.15;98985.31;5089231;27;8826;-81
2022/08/28 05:00:16;;;;;;;;;40.75;36.25;;;;;30.24;41.91;98977.00;5135893;27;8853;-80
2022/08/28 05:02:44;;;;;;;;;44.75;38.00;;;;;30.39;42.02;98980.16;5149038;27;8869;-81
2022/08/28 05:05:13;;;;;;;;;44.00;37.75;;;;;30.13;42.22;98983.34;5133870;27;8880;-80
2022/08/28 05:07:42;;;;;;;;;49.50;40.50;;;;;30.00;42.89;98994.38;5115779;27;8999;-81
2022/08/28 05:10:12;;;;;;;;;46.25;38.25;;;;;29.84;43.09;98994.06;5115161;28;8873;-80
2022/08/28 05:12:41;;;;;;;;;43.75;37.50;;;;;29.95;42.99;99003.84;5115289;27;8821;-83
2022/08/28 05:15:11;;;;;;;;;42.00;35.75;;;;;30.16;43.22;98991.16;5111205;27;8959;-81
2022/08/28 05:17:41;;;;;;;;;40.00;35.00;;;;;30.33;43.02;98992.31;5112719;27;8865;-78
2022/08/28 05:20:10;;;;;;;;;42.75;35.50;;;;;30.43;42.23;99001.25;5128726;27;8888;-74
2022/08/28 05:22:39;;;;;;;;;42.25;35.50;;;;;30.55;42.65;99001.09;5127913;27;8943;-67
2022/08/28 05:25:08;;;;;;;;;80.25;71.00;;;;;30.61;42.82;99003.25;5128517;27;9070;-66
2022/08/28 05:27:39;;;;;;;;;72.50;60.25;;;;;30.66;42.47;99009.91;5127300;27;10815;-67
2022/08/28 05:30:09;;;;;;;;;44.25;38.00;;;;;30.62;42.44;99011.16;5110743;27;9572;-69
2022/08/28 05:32:37;;;;;;;;;43.50;36.75;;;;;30.38;43.70;99016.97;5128125;27;8857;-67
2022/08/28 05:35:08;;;;;;;;;42.50;36.25;;;;;30.44;43.78;99016.41;5127946;27;8926;-67
2022/08/28 05:37:36;;;;;;;;;48.25;39.00;;;;;30.40;43.63;99011.47;5127678;27;8948;-68
2022/08/28 05:40:06;;;;;;;;;45.75;39.25;;;;;30.69;43.09;99006.06;5128026;27;8973;-69
2022/08/28 05:42:34;;;;;;;;;54.75;45.25;;;;;30.84;42.86;99009.16;5094358;27;9555;-68
2022/08/28 05:45:08;;;;;;;;;41.75;36.50;;;;;30.32;44.63;99020.22;5116262;27;9821;-69
2022/08/28 05:47:37;;;;;;;;;39.75;34.75;;;;;30.42;44.13;99022.94;5130668;27;8834;-66
2022/08/28 05:50:08;;;;;;;;;46.25;38.50;;;;;30.53;44.15;99025.50;5130780;27;9613;-66
2022/08/28 05:52:37;;;;;;;;;57.25;47.75;;;;;30.68;44.04;99024.06;5109534;28;8994;-70
2022/08/28 05:55:06;;;;;;;;;46.75;38.50;;;;;30.84;43.38;99025.31;5122435;27;8872;-68
2022/08/28 05:57:35;;;;;;;;;44.00;36.75;;;;;30.95;43.40;99022.50;5114612;27;8826;-68
2022/08/28 06:00:05;;;;;;;;;43.25;36.75;;;;;31.16;43.34;99019.63;5118115;27;8920;-69
2022/08/28 06:02:33;;;;;;;;;44.00;36.25;;;;;31.15;43.04;99019.78;5123425;27;8872;-66
2022/08/28 06:05:02;;;;;;;;;47.25;39.00;;;;;31.15;42.95;99022.47;5118666;27;8881;-68
2022/08/28 06:07:32;;;;;;;;;71.25;59.25;;;;;31.42;42.40;99013.63;5115695;27;8851;-69
2022/08/28 06:10:01;;;;;;;;;46.50;38.75;;;;;31.46;42.45;99017.69;5088769;27;9624;-74
2022/08/28 06:12:30;;;;;;;;;43.75;37.50;;;;;31.60;42.19;99019.09;5123395;27;9038;-75
2022/08/28 06:14:59;;;;;;;;;44.25;36.75;;;;;31.41;42.36;99019.97;5128308;27;8862;-75
2022/08/28 06:17:27;;;;;;;;;40.00;34.50;;;;;31.63;42.13;99024.19;5108520;27;8842;-74
2022/08/28 06:19:56;;;;;;;;;45.25;36.75;;;;;31.71;42.36;99031.53;5129395;27;8942;-75
2022/08/28 06:22:24;;;;;;;;;39.75;34.50;;;;;31.60;42.19;99024.47;5115577;27;8845;-74
2022/08/28 06:24:54;;;;;;;;;41.50;35.75;;;;;31.83;41.75;99033.03;5144876;27;8953;-76
2022/08/28 06:27:23;;;;;;;;;38.50;33.75;;;;;32.02;41.60;99026.72;5124553;27;8969;-75
2022/08/28 06:29:52;;;;;;;;;41.50;36.00;;;;;32.20;41.14;99032.16;5129412;27;8876;-75
2022/08/28 06:32:21;;;;;;;;;45.00;38.00;;;;;32.21;41.18;99033.81;5080303;27;8853;-75
2022/08/28 06:34:49;;;;;;;;;50.75;42.50;;;;;32.17;41.49;99030.59;5123701;27;8842;-75
2022/08/28 06:37:18;;;;;;;;;68.75;53.75;;;;;32.32;41.15;99032.78;5088637;28;8924;-75
2022/08/28 06:39:46;;;;;;;;;40.75;34.25;;;;;32.29;41.10;99033.06;5123579;27;9524;-76
2022/08/28 06:42:16;;;;;;;;;39.25;34.75;;;;;32.46;40.78;99032.25;5136575;27;8965;-75
2022/08/28 06:44:45;;;;;;;;;40.00;34.25;;;;;32.59;40.55;99043.53;5136797;27;8849;-75
2022/08/28 06:47:14;;;;;;;;;52.00;43.25;;;;;32.56;40.61;99043.81;5149589;27;8862;-76
2022/08/28 06:49:43;;;;;;;;;41.25;35.75;;;;;32.78;40.53;99045.22;5109633;27;8857;-77
2022/08/28 06:52:12;;;;;;;;;35.75;31.00;;;;;32.93;39.82;99044.66;5133315;27;8827;-78
2022/08/28 06:54:40;;;;;;;;;38.25;34.75;;;;;33.00;39.71;99043.88;5150264;27;8874;-78
2022/08/28 06:57:25;;;;;;;;;38.25;34.25;;;;;32.74;40.18;99054.66;5150177;27;8823;-76
2022/08/28 06:59:55;;;;;;;;;37.25;33.25;;;;;32.35;41.05;99059.47;5127610;27;8942;-71
2022/08/28 07:02:25;;;;;;;;;47.00;40.00;;;;;32.53;40.99;99057.59;5129125;27;8899;-69
2022/08/28 07:04:55;;;;;;;;;43.00;36.75;;;;;32.55;40.73;99054.75;5142585;27;8847;-63
2022/08/28 07:07:24;;;;;;;;;41.00;34.50;;;;;31.38;43.48;99056.16;5128755;27;8876;-63
2022/08/28 07:09:59;;;;;;;;;41.75;36.50;;;;;30.94;44.59;99061.19;5144220;27;8931;-68
2022/08/28 07:12:29;;;;;;;;;47.50;39.75;;;;;30.60;45.09;99058.91;5130738;27;8945;-65
2022/08/28 07:14:58;;;;;;;;;40.25;34.25;;;;;30.91;44.61;99058.81;5133748;27;8968;-65
2022/08/28 07:17:27;;;;;;;;;36.75;32.25;;;;;31.56;43.16;99058.97;5128801;27;8865;-64
2022/08/28 07:19:56;;;;;;;;;38.75;35.00;;;;;31.73;42.87;99061.91;5128886;27;8849;-64
2022/08/28 07:22:25;;;;;;;;;39.25;33.00;;;;;31.61;43.07;99058.53;5109854;27;8853;-66
2022/08/28 07:24:54;;;;;;;;;34.25;31.00;;;;;31.63;43.54;99061.94;5140939;27;8839;-63
2022/08/28 07:27:23;;;;;;;;;39.25;35.25;;;;;31.68;43.17;99062.31;5149145;27;8965;-65
2022/08/28 07:29:53;;;;;;;;;39.75;34.50;;;;;31.89;42.92;99064.81;5148466;27;9592;-65
2022/08/28 07:32:22;;;;;;;;;36.50;33.25;;;;;32.01;42.20;99073.56;5146676;27;8881;-64
2022/08/28 07:34:51;;;;;;;;;42.75;36.50;;;;;31.93;42.38;99068.91;5128477;27;8876;-64
2022/08/28 07:37:20;;;;;;;;;35.25;33.00;;;;;32.39;41.97;99066.25;5146468;27;8823;-64
2022/08/28 07:39:49;;;;;;;;;27.75;25.50;;;;;32.75;40.98;99077.09;5148727;27;8843;-65
2022/08/28 07:45:05;;;;;;;;;38.00;34.75;;;;;33.18;40.21;99070.06;5127260;27;8963;-64
2022/08/28 07:47:34;;;;;;;;;32.25;30.00;;;;;32.76;40.49;99078.78;5128717;27;8850;-64
2022/08/28 07:50:03;;;;;;;;;39.50;34.00;;;;;31.36;43.56;99085.13;5148308;27;9561;-65
2022/08/28 07:52:32;;;;;;;;;37.75;33.00;;;;;31.50;43.60;99082.97;5146342;27;8835;-77
2022/08/28 07:55:00;;;;;;;;;59.50;47.25;;;;;31.99;42.53;99075.56;5149204;27;8941;-80
2022/08/28 07:57:30;;;;;;;;;37.50;33.50;;;;;32.38;41.93;99075.34;5135412;27;8919;-77
2022/08/28 07:59:59;;;;;;;;;51.00;43.00;;;;;32.78;40.96;99087.56;5135880;27;8855;-75
2022/08/28 08:02:29;;;;;;;;;40.75;35.75;;;;;32.51;41.28;99078.50;5130712;27;8855;-76
2022/08/28 08:04:58;;;;;;;;;38.25;33.75;;;;;32.91;40.66;99079.97;5128915;27;8854;-76
2022/08/28 08:07:27;;;;;;;;;37.00;33.00;;;;;32.95;40.33;99081.34;5129833;27;8879;-75
2022/08/28 08:09:56;;;;;;;;;36.75;33.50;;;;;32.74;40.92;99075.38;5149347;27;8836;-76
2022/08/28 08:12:25;;;;;;;;;33.75;31.75;;;;;33.11;39.99;99082.50;5128740;27;8874;-77
2022/08/28 08:14:56;;;;;;;;;42.00;36.00;;;;;32.33;41.78;99085.75;5129072;27;8898;-75
2022/08/28 08:17:25;;;;;;;;;40.00;34.25;;;;;31.49;43.88;99084.81;5129135;27;8895;-77
2022/08/28 08:19:55;;;;;;;;;33.50;30.50;;;;;31.99;43.03;99091.72;5128891;27;8960;-77
2022/08/28 08:22:24;;;;;;;;;34.25;31.50;;;;;31.44;44.34;99089.78;5137746;27;8851;-76
2022/08/28 08:24:54;;;;;;;;;38.25;34.75;;;;;31.99;43.21;99087.19;5082500;27;8845;-75
2022/08/28 08:27:22;;;;;;;;;35.00;32.25;;;;;32.58;41.87;99089.59;5096586;27;8865;-75
2022/08/28 08:29:51;;;;;;;;;33.75;31.50;;;;;32.93;41.49;99091.44;5148896;27;8839;-76
2022/08/28 08:32:20;;;;;;;;;39.75;33.25;;;;;33.39;40.50;99094.88;5148139;27;8831;-75
2022/08/28 08:34:48;;;;;;;;;31.00;29.75;;;;;33.21;39.81;99096.75;5149105;27;8856;-75
2022/08/28 08:37:18;;;;;;;;;34.75;32.50;;;;;33.56;39.54;99090.41;5149098;27;8881;-75
2022/08/28 08:39:47;;;;;;;;;35.75;32.00;;;;;33.96;38.90;99093.53;5152560;27;9576;-75
2022/08/28 08:42:23;;;;;;;;;45.75;39.00;;;;;34.03;38.77;99091.88;5153320;27;8860;-76
2022/08/28 08:44:53;;;;;;;;;35.75;33.25;;;;;33.75;39.22;99104.75;5153304;27;8851;-76
2022/08/28 08:47:30;;;;;;;;;35.25;32.75;;;;;33.25;40.32;99087.31;5138970;27;8872;-77
2022/08/28 08:50:01;;;;;;;;;32.50;29.75;;;;;32.49;41.47;99088.63;5132408;27;8865;-75
2022/08/28 08:52:40;;;;;;;;;43.50;35.75;;;;;32.36;42.19;99090.84;5150831;27;8827;-77
2022/08/28 08:55:21;;;;;;;;;40.50;34.50;;;;;32.64;41.65;99097.91;5116158;27;8889;-76
2022/08/28 08:57:57;;;;;;;;;43.00;33.75;;;;;33.15;40.91;99102.78;5152532;27;8844;-79
2022/08/28 09:00:25;;;;;;;;;36.25;33.25;;;;;33.15;40.62;99103.63;5152820;27;8893;-74
2022/08/28 09:03:00;;;;;;;;;39.00;34.75;;;;;33.08;40.66;99091.72;5082335;27;8859;-80
2022/08/28 09:05:41;;;;;;;;;43.00;36.00;;;;;32.45;42.27;99104.25;5130776;27;8914;-75
2022/08/28 09:08:23;;;;;;;;;41.75;36.00;;;;;32.50;42.03;99100.28;5143927;27;8931;-75
2022/08/28 09:11:00;;;;;;;;;44.50;36.50;;;;;32.58;41.94;99105.78;5144173;27;8857;-78
2022/08/28 09:13:42;;;;;;;;;39.50;33.75;;;;;33.33;40.86;99097.38;5150112;27;8952;-74
2022/08/28 09:16:20;;;;;;;;;41.00;35.75;;;;;33.86;39.98;99103.59;5151642;27;8835;-75
2022/08/28 09:18:50;;;;;;;;;48.50;40.00;;;;;32.95;40.95;99102.06;5148961;27;9636;-74
2022/08/28 09:21:26;;;;;;;;;43.50;36.25;;;;;33.16;41.00;99101.81;5151948;27;8877;-74
2022/08/28 09:24:01;;;;;;;;;43.50;36.50;;;;;33.90;39.53;99110.41;5150944;27;8966;-74
2022/08/28 09:26:33;;;;;;;;;40.50;36.00;;;;;33.59;40.78;99100.91;5148121;27;8835;-76
2022/08/28 09:29:05;;;;;;;;;74.75;63.00;;;;;34.22;39.29;99104.31;5149816;27;9611;-76
2022/08/28 09:31:37;;;;;;;;;42.50;36.50;;;;;33.65;40.04;99104.00;5150283;27;10308;-73
2022/08/28 09:34:25;;;;;;;;;44.25;35.50;;;;;32.16;43.62;99109.84;5151161;27;8852;-76
2022/08/28 09:36:55;;;;;;;;;39.75;35.25;;;;;31.81;44.94;99110.53;5131614;27;8834;-75
2022/08/28 09:39:31;;;;;;;;;44.75;38.25;;;;;32.39;43.54;99104.03;5154203;27;9009;-75
2022/08/28 09:45:05;;;;;;;;;42.75;36.00;;;;;31.86;44.34;99106.38;5167069;27;8858;-76
2022/08/28 09:47:40;;;;;;;;;61.75;49.00;;;;;32.15;44.00;99107.28;5153519;27;8845;-76
2022/08/28 09:50:20;;;;;;;;;40.25;35.25;;;;;32.80;42.43;99102.63;5151051;27;8877;-76
2022/08/28 09:52:50;;;;;;;;;40.75;35.50;;;;;33.22;41.47;99107.41;5119694;27;8847;-75
2022/08/28 09:55:30;;;;;;;;;36.00;33.00;;;;;33.67;40.59;99102.84;5151826;27;8855;-75
2022/08/28 09:57:59;;;;;;;;;33.50;31.50;;;;;33.75;40.27;99108.31;5111516;27;8865;-75
2022/08/28 10:00:33;;;;;;;;;40.25;35.25;;;;;33.55;40.27;99104.09;5143735;27;8954;-75
2022/08/28 10:03:13;;;;;;;;;50.00;40.50;;;;;33.22;40.50;99099.31;5115341;27;9080;-75
2022/08/28 10:05:53;;;;;;;;;38.25;32.75;;;;;33.65;40.69;99104.88;5133210;27;8887;-75
2022/08/28 10:08:30;;;;;;;;;40.00;34.75;;;;;33.31;40.44;99096.66;5135397;27;8904;-75
2022/08/28 10:11:13;;;;;;;;;34.50;32.25;;;;;33.22;40.19;99098.47;5131056;27;8855;-77
2022/08/28 10:13:50;;;;;;;;;27.50;27.25;;;;;33.96;39.14;99090.81;5151903;27;8843;-74
2022/08/28 10:16:32;;;;;;;;;36.25;33.00;;;;;34.53;38.75;99093.72;5133049;27;8855;-76
2022/08/28 10:19:10;;;;;;;;;30.75;29.75;;;;;34.52;38.15;99086.63;5151223;27;9573;-76
2022/08/28 10:21:46;;;;;;;;;33.50;30.75;;;;;34.97;38.00;99092.63;5150797;27;8851;-76
2022/08/28 10:24:40;;;;;;;;;39.75;33.75;;;;;34.33;38.58;99095.03;5150978;27;8851;-77
2022/08/28 10:27:25;;;;;;;;;33.00;30.50;;;;;34.93;37.51;99084.00;5150985;27;9010;-73
2022/08/28 10:30:06;;;;;;;;;59.00;47.75;;;;;35.50;36.80;99091.28;5131643;27;8855;-74
2022/08/28 10:33:02;;;;;;;;;39.25;34.50;;;;;35.48;36.11;99081.59;5150091;27;8852;-73
2022/08/28 10:35:43;;;;;;;;;35.00;32.00;;;;;35.60;35.38;99082.94;5151060;27;8924;-73
2022/08/28 10:38:16;;;;;;;;;32.25;30.75;;;;;36.03;35.66;99083.50;5089332;28;8877;-77
2022/08/28 10:40:55;;;;;;;;;37.00;32.75;;;;;34.74;36.62;99096.00;5106073;28;8861;-73
2022/08/28 10:43:32;;;;;;;;;40.25;35.50;;;;;34.89;36.13;99076.38;5106593;28;8865;-74
2022/08/28 10:46:05;;;;;;;;;32.00;30.75;;;;;35.46;35.80;99078.22;5106445;27;8960;-74
2022/08/28 10:48:40;;;;;;;;;42.25;35.75;;;;;35.96;35.15;99073.53;5106739;28;8961;-74
2022/08/28 10:51:16;;;;;;;;;34.00;30.75;;;;;36.26;34.67;99078.16;5089916;27;8915;-73
2022/08/28 10:53:50;;;;;;;;;37.25;33.00;;;;;36.03;34.53;99075.38;5089194;28;8903;-74
2022/08/28 10:56:23;;;;;;;;;39.00;34.50;;;;;34.65;35.63;99088.00;5106439;27;8857;-72
2022/08/28 10:58:58;;;;;;;;;36.25;32.50;;;;;35.00;35.61;99081.47;5105609;28;8861;-74
2022/08/28 11:01:31;;;;;;;;;35.00;32.00;;;;;35.00;35.51;99083.34;5109505;27;8847;-73
2022/08/28 11:04:02;;;;;;;;;34.75;32.00;;;;;34.60;37.06;99079.56;5126675;27;8867;-76
2022/08/28 11:06:36;;;;;;;;;31.50;30.00;;;;;34.66;36.58;99073.47;5076140;27;8866;-76
2022/08/28 11:11:55;;;;;;;;;36.00;32.75;;;;;35.79;34.92;99075.47;5065150;27;8861;-74
2022/08/28 11:14:34;;;;;;;;;35.25;32.00;;;;;36.26;34.75;99072.72;5129906;27;8880;-75
2022/08/28 11:17:37;;;;;;;;;36.00;32.50;;;;;36.02;34.55;99070.09;5144079;27;8841;-74
2022/08/28 11:20:15;;;;;;;;;36.25;32.25;;;;;35.47;34.68;99077.22;5129450;27;8997;-75
2022/08/28 11:22:49;;;;;;;;;38.50;32.50;;;;;35.50;34.35;99074.13;5129426;27;9684;-76
2022/08/28 11:25:22;;;;;;;;;35.75;32.75;;;;;35.08;34.88;99077.91;5128500;27;9081;-75
2022/08/28 11:28:16;;;;;;;;;38.50;34.50;;;;;35.23;34.78;99070.81;5128987;27;8846;-72
2022/08/28 11:30:48;;;;;;;;;28.50;28.50;;;;;35.23;35.26;99067.25;5135717;27;8867;-74
2022/08/28 11:33:38;;;;;;;;;33.00;31.25;;;;;35.92;34.75;99063.03;5149012;27;8946;-75
2022/08/28 11:36:11;;;;;;;;;38.00;32.50;;;;;36.11;33.84;99056.31;5084908;28;8971;-76
2022/08/28 11:39:20;;;;;;;;;29.50;29.25;;;;;37.18;32.35;99049.34;5085281;28;8849;-73
2022/08/28 11:42:31;;;;;;;;;35.75;33.00;;;;;36.71;33.09;99056.66;5051222;28;8844;-73
2022/08/28 11:45:00;;;;;;;;;32.50;30.75;;;;;37.37;31.84;99054.22;5071126;28;8867;-73
2022/08/28 11:47:56;;;;;;;;;34.00;30.75;;;;;36.55;32.82;99060.31;5078767;28;8859;-76
2022/08/28 11:50:30;;;;;;;;;36.00;32.50;;;;;36.03;33.36;99050.94;5064669;28;8976;-74
2022/08/28 11:53:44;;;;;;;;;39.25;33.50;;;;;35.70;33.52;99052.94;5064888;28;8863;-74
2022/08/28 11:56:40;;;;;;;;;48.00;39.75;;;;;35.57;34.14;99052.59;4985279;28;8865;-76
2022/08/28 11:59:37;;;;;;;;;44.00;35.75;;;;;36.13;34.18;99044.41;4984974;28;9177;-72
2022/08/28 12:02:42;;;;;;;;;37.75;34.25;;;;;36.03;33.23;99045.50;4985390;28;9591;-73